sensor_id;sensor_type;location;lat;lon;timestamp;P1;durP1;ratioP1;P2;durP2;ratioP2
45784;SDS011;31489;51.404;5.474;2023-04-03T00:01:16;6.07;;;3.60;;
45784;SDS011;31489;51.404;5.474;2023-04-03T00:03:42;5.55;;;3.20;;
45784;SDS011;31489;51.404;5.474;2023-04-03T00:06:08;5.30;;;3.10;;
45784;SDS011;31489;51.404;5.474;2023-04-03T00:08:35;5.78;;;3.22;;
45784;SDS011;31489;51.404;5.474;2023-04-03T00:11:01;7.10;;;3.65;;
45784;SDS011;31489;51.404;5.474;2023-04-03T00:13:27;5.55;;;2.83;;
45784;SDS011;31489;51.404;5.474;2023-04-03T00:15:53;5.18;;;3.33;;
45784;SDS011;31489;51.404;5.474;2023-04-03T00:18:19;4.93;;;3.50;;
45784;SDS011;31489;51.404;5.474;2023-04-03T00:20:45;7.47;;;3.88;;
45784;SDS011;31489;51.404;5.474;2023-04-03T00:23:10;7.22;;;3.60;;
45784;SDS011;31489;51.404;5.474;2023-04-03T00:25:36;4.53;;;3.30;;
45784;SDS011;31489;51.404;5.474;2023-04-03T00:28:02;5.82;;;3.80;;
45784;SDS011;31489;51.404;5.474;2023-04-03T00:30:29;5.80;;;3.13;;
45784;SDS011;31489;51.404;5.474;2023-04-03T00:32:55;4.57;;;3.42;;
45784;SDS011;31489;51.404;5.474;2023-04-03T00:35:21;5.30;;;3.22;;
45784;SDS011;31489;51.404;5.474;2023-04-03T00:37:48;5.15;;;3.08;;
45784;SDS011;31489;51.404;5.474;2023-04-03T00:40:15;7.47;;;3.90;;
45784;SDS011;31489;51.404;5.474;2023-04-03T00:42:42;7.25;;;3.83;;
45784;SDS011;31489;51.404;5.474;2023-04-03T00:47:43;7.25;;;4.20;;
45784;SDS011;31489;51.404;5.474;2023-04-03T00:50:09;7.45;;;4.35;;
45784;SDS011;31489;51.404;5.474;2023-04-03T00:52:35;7.65;;;4.13;;
45784;SDS011;31489;51.404;5.474;2023-04-03T00:55:04;9.23;;;4.88;;
45784;SDS011;31489;51.404;5.474;2023-04-03T00:57:32;6.78;;;4.70;;
45784;SDS011;31489;51.404;5.474;2023-04-03T00:59:59;6.10;;;4.75;;
45784;SDS011;31489;51.404;5.474;2023-04-03T01:02:31;8.82;;;4.93;;
45784;SDS011;31489;51.404;5.474;2023-04-03T01:04:56;7.40;;;4.90;;
45784;SDS011;31489;51.404;5.474;2023-04-03T01:07:23;7.43;;;4.82;;
45784;SDS011;31489;51.404;5.474;2023-04-03T01:09:56;8.18;;;5.22;;
45784;SDS011;31489;51.404;5.474;2023-04-03T01:12:27;7.68;;;5.35;;
45784;SDS011;31489;51.404;5.474;2023-04-03T01:14:56;5.90;;;4.70;;
45784;SDS011;31489;51.404;5.474;2023-04-03T01:17:35;6.97;;;4.35;;
45784;SDS011;31489;51.404;5.474;2023-04-03T01:25:38;7.90;;;4.85;;
45784;SDS011;31489;51.404;5.474;2023-04-03T01:28:05;7.28;;;4.20;;
45784;SDS011;31489;51.404;5.474;2023-04-03T01:30:36;7.10;;;5.05;;
45784;SDS011;31489;51.404;5.474;2023-04-03T01:33:11;7.13;;;4.00;;
45784;SDS011;31489;51.404;5.474;2023-04-03T01:35:37;6.63;;;4.85;;
45784;SDS011;31489;51.404;5.474;2023-04-03T01:38:02;7.97;;;5.00;;
45784;SDS011;31489;51.404;5.474;2023-04-03T01:40:28;5.72;;;4.75;;
45784;SDS011;31489;51.404;5.474;2023-04-03T01:42:54;6.40;;;4.63;;
45784;SDS011;31489;51.404;5.474;2023-04-03T01:45:19;6.80;;;4.72;;
45784;SDS011;31489;51.404;5.474;2023-04-03T01:47:45;7.38;;;4.40;;
45784;SDS011;31489;51.404;5.474;2023-04-03T01:50:11;7.10;;;3.92;;
45784;SDS011;31489;51.404;5.474;2023-04-03T01:52:36;6.00;;;4.30;;
45784;SDS011;31489;51.404;5.474;2023-04-03T01:55:02;6.72;;;4.53;;
45784;SDS011;31489;51.404;5.474;2023-04-03T01:57:28;5.43;;;4.15;;
45784;SDS011;31489;51.404;5.474;2023-04-03T01:59:53;5.80;;;4.05;;
45784;SDS011;31489;51.404;5.474;2023-04-03T02:02:19;5.78;;;3.90;;
45784;SDS011;31489;51.404;5.474;2023-04-03T02:04:45;6.00;;;4.15;;
45784;SDS011;31489;51.404;5.474;2023-04-03T02:07:11;9.38;;;4.40;;
45784;SDS011;31489;51.404;5.474;2023-04-03T02:09:37;6.95;;;4.30;;
45784;SDS011;31489;51.404;5.474;2023-04-03T02:12:02;7.68;;;3.88;;
45784;SDS011;31489;51.404;5.474;2023-04-03T02:14:28;6.45;;;4.28;;
45784;SDS011;31489;51.404;5.474;2023-04-03T02:16:54;6.75;;;3.85;;
45784;SDS011;31489;51.404;5.474;2023-04-03T02:19:20;6.40;;;4.32;;
45784;SDS011;31489;51.404;5.474;2023-04-03T02:21:45;5.28;;;3.78;;
45784;SDS011;31489;51.404;5.474;2023-04-03T02:24:11;5.60;;;4.10;;
45784;SDS011;31489;51.404;5.474;2023-04-03T02:26:36;7.45;;;4.07;;
45784;SDS011;31489;51.404;5.474;2023-04-03T02:29:02;7.60;;;4.30;;
45784;SDS011;31489;51.404;5.474;2023-04-03T02:31:28;7.78;;;4.43;;
45784;SDS011;31489;51.404;5.474;2023-04-03T02:33:53;4.90;;;3.78;;
45784;SDS011;31489;51.404;5.474;2023-04-03T02:36:19;6.07;;;4.00;;
45784;SDS011;31489;51.404;5.474;2023-04-03T02:38:45;5.30;;;3.55;;
45784;SDS011;31489;51.404;5.474;2023-04-03T02:41:11;6.05;;;4.15;;
45784;SDS011;31489;51.404;5.474;2023-04-03T02:43:37;6.55;;;3.90;;
45784;SDS011;31489;51.404;5.474;2023-04-03T02:46:03;5.85;;;3.78;;
45784;SDS011;31489;51.404;5.474;2023-04-03T02:48:29;9.45;;;4.35;;
45784;SDS011;31489;51.404;5.474;2023-04-03T02:50:55;5.22;;;3.80;;
45784;SDS011;31489;51.404;5.474;2023-04-03T02:53:21;6.72;;;3.50;;
45784;SDS011;31489;51.404;5.474;2023-04-03T02:55:46;5.88;;;3.38;;
45784;SDS011;31489;51.404;5.474;2023-04-03T02:58:12;6.65;;;3.90;;
45784;SDS011;31489;51.404;5.474;2023-04-03T03:00:38;7.60;;;3.83;;
45784;SDS011;31489;51.404;5.474;2023-04-03T03:03:03;5.95;;;3.50;;
45784;SDS011;31489;51.404;5.474;2023-04-03T03:05:29;8.85;;;3.70;;
45784;SDS011;31489;51.404;5.474;2023-04-03T03:07:56;7.20;;;3.50;;
45784;SDS011;31489;51.404;5.474;2023-04-03T03:10:22;8.80;;;3.53;;
45784;SDS011;31489;51.404;5.474;2023-04-03T03:12:48;7.03;;;3.35;;
45784;SDS011;31489;51.404;5.474;2023-04-03T03:15:14;5.25;;;3.72;;
45784;SDS011;31489;51.404;5.474;2023-04-03T03:17:41;5.28;;;3.28;;
45784;SDS011;31489;51.404;5.474;2023-04-03T03:20:07;4.97;;;3.72;;
45784;SDS011;31489;51.404;5.474;2023-04-03T03:22:34;5.88;;;3.63;;
45784;SDS011;31489;51.404;5.474;2023-04-03T03:25:00;6.95;;;3.15;;
45784;SDS011;31489;51.404;5.474;2023-04-03T03:27:26;3.85;;;3.42;;
45784;SDS011;31489;51.404;5.474;2023-04-03T03:29:51;5.15;;;3.55;;
45784;SDS011;31489;51.404;5.474;2023-04-03T03:32:17;6.47;;;3.20;;
45784;SDS011;31489;51.404;5.474;2023-04-03T03:34:43;5.45;;;2.97;;
45784;SDS011;31489;51.404;5.474;2023-04-03T03:37:08;4.75;;;3.00;;
45784;SDS011;31489;51.404;5.474;2023-04-03T03:39:34;5.82;;;3.00;;
45784;SDS011;31489;51.404;5.474;2023-04-03T03:42:00;6.28;;;3.35;;
45784;SDS011;31489;51.404;5.474;2023-04-03T03:44:25;7.95;;;3.42;;
45784;SDS011;31489;51.404;5.474;2023-04-03T03:46:52;4.53;;;2.85;;
45784;SDS011;31489;51.404;5.474;2023-04-03T03:49:18;3.28;;;2.75;;
45784;SDS011;31489;51.404;5.474;2023-04-03T03:51:44;4.28;;;3.20;;
45784;SDS011;31489;51.404;5.474;2023-04-03T03:54:10;6.50;;;3.00;;
45784;SDS011;31489;51.404;5.474;2023-04-03T03:56:36;8.38;;;3.28;;
45784;SDS011;31489;51.404;5.474;2023-04-03T03:59:01;5.70;;;2.95;;
45784;SDS011;31489;51.404;5.474;2023-04-03T04:01:27;5.93;;;2.88;;
45784;SDS011;31489;51.404;5.474;2023-04-03T04:03:53;6.28;;;2.90;;
45784;SDS011;31489;51.404;5.474;2023-04-03T04:06:21;4.93;;;2.67;;
45784;SDS011;31489;51.404;5.474;2023-04-03T04:08:47;5.18;;;2.85;;
45784;SDS011;31489;51.404;5.474;2023-04-03T04:11:13;4.10;;;2.53;;
45784;SDS011;31489;51.404;5.474;2023-04-03T04:13:39;6.40;;;3.13;;
45784;SDS011;31489;51.404;5.474;2023-04-03T04:16:05;4.88;;;3.15;;
45784;SDS011;31489;51.404;5.474;2023-04-03T04:18:31;4.18;;;2.55;;
45784;SDS011;31489;51.404;5.474;2023-04-03T04:20:57;4.97;;;2.85;;
45784;SDS011;31489;51.404;5.474;2023-04-03T04:23:22;4.25;;;2.83;;
45784;SDS011;31489;51.404;5.474;2023-04-03T04:25:48;4.18;;;2.58;;
45784;SDS011;31489;51.404;5.474;2023-04-03T04:28:14;4.22;;;2.50;;
45784;SDS011;31489;51.404;5.474;2023-04-03T04:30:41;6.22;;;2.95;;
45784;SDS011;31489;51.404;5.474;2023-04-03T04:33:06;3.92;;;2.83;;
45784;SDS011;31489;51.404;5.474;2023-04-03T04:35:32;4.93;;;2.58;;
45784;SDS011;31489;51.404;5.474;2023-04-03T04:37:58;4.32;;;2.78;;
45784;SDS011;31489;51.404;5.474;2023-04-03T04:40:24;5.65;;;2.78;;
45784;SDS011;31489;51.404;5.474;2023-04-03T04:42:50;3.95;;;2.80;;
45784;SDS011;31489;51.404;5.474;2023-04-03T04:45:16;3.95;;;2.67;;
45784;SDS011;31489;51.404;5.474;2023-04-03T04:47:42;6.50;;;2.70;;
45784;SDS011;31489;51.404;5.474;2023-04-03T04:50:08;4.90;;;2.40;;
45784;SDS011;31489;51.404;5.474;2023-04-03T04:52:34;4.25;;;2.67;;
45784;SDS011;31489;51.404;5.474;2023-04-03T04:55:00;6.63;;;2.40;;
45784;SDS011;31489;51.404;5.474;2023-04-03T04:57:26;5.65;;;2.95;;
45784;SDS011;31489;51.404;5.474;2023-04-03T04:59:51;7.75;;;2.47;;
45784;SDS011;31489;51.404;5.474;2023-04-03T05:02:17;7.00;;;2.53;;
45784;SDS011;31489;51.404;5.474;2023-04-03T05:04:43;5.07;;;2.63;;
45784;SDS011;31489;51.404;5.474;2023-04-03T05:07:08;4.53;;;2.42;;
45784;SDS011;31489;51.404;5.474;2023-04-03T05:09:34;5.18;;;2.42;;
45784;SDS011;31489;51.404;5.474;2023-04-03T05:11:59;6.55;;;2.40;;
45784;SDS011;31489;51.404;5.474;2023-04-03T05:14:25;5.55;;;2.90;;
45784;SDS011;31489;51.404;5.474;2023-04-03T05:16:51;4.35;;;2.45;;
45784;SDS011;31489;51.404;5.474;2023-04-03T05:19:20;4.68;;;2.42;;
45784;SDS011;31489;51.404;5.474;2023-04-03T05:21:46;13.07;;;2.78;;
45784;SDS011;31489;51.404;5.474;2023-04-03T05:24:12;4.95;;;2.40;;
45784;SDS011;31489;51.404;5.474;2023-04-03T05:26:38;4.03;;;2.60;;
45784;SDS011;31489;51.404;5.474;2023-04-03T05:29:04;6.70;;;2.60;;
45784;SDS011;31489;51.404;5.474;2023-04-03T05:31:30;5.90;;;2.58;;
45784;SDS011;31489;51.404;5.474;2023-04-03T05:33:56;3.53;;;2.20;;
45784;SDS011;31489;51.404;5.474;2023-04-03T05:36:22;3.58;;;2.15;;
45784;SDS011;31489;51.404;5.474;2023-04-03T05:38:47;3.95;;;2.20;;
45784;SDS011;31489;51.404;5.474;2023-04-03T05:41:14;6.05;;;2.50;;
45784;SDS011;31489;51.404;5.474;2023-04-03T05:43:40;4.22;;;2.72;;
45784;SDS011;31489;51.404;5.474;2023-04-03T05:46:09;6.32;;;2.53;;
45784;SDS011;31489;51.404;5.474;2023-04-03T05:48:36;7.60;;;2.20;;
45784;SDS011;31489;51.404;5.474;2023-04-03T05:51:05;3.00;;;2.05;;
45784;SDS011;31489;51.404;5.474;2023-04-03T05:53:32;5.28;;;2.05;;
45784;SDS011;31489;51.404;5.474;2023-04-03T05:56:02;3.95;;;1.90;;
45784;SDS011;31489;51.404;5.474;2023-04-03T05:58:28;6.65;;;2.50;;
45784;SDS011;31489;51.404;5.474;2023-04-03T06:00:54;7.00;;;2.15;;
45784;SDS011;31489;51.404;5.474;2023-04-03T06:03:20;3.72;;;1.85;;
45784;SDS011;31489;51.404;5.474;2023-04-03T06:05:46;4.75;;;2.25;;
45784;SDS011;31489;51.404;5.474;2023-04-03T06:08:11;4.78;;;2.25;;
45784;SDS011;31489;51.404;5.474;2023-04-03T06:10:37;5.72;;;2.20;;
45784;SDS011;31489;51.404;5.474;2023-04-03T06:13:03;4.35;;;2.20;;
45784;SDS011;31489;51.404;5.474;2023-04-03T06:15:29;4.65;;;1.90;;
45784;SDS011;31489;51.404;5.474;2023-04-03T06:17:55;3.50;;;2.00;;
45784;SDS011;31489;51.404;5.474;2023-04-03T06:20:21;5.65;;;1.83;;
45784;SDS011;31489;51.404;5.474;2023-04-03T06:22:47;4.50;;;1.98;;
45784;SDS011;31489;51.404;5.474;2023-04-03T06:25:13;5.43;;;2.13;;
45784;SDS011;31489;51.404;5.474;2023-04-03T06:27:39;5.30;;;1.80;;
45784;SDS011;31489;51.404;5.474;2023-04-03T06:30:06;3.75;;;1.83;;
45784;SDS011;31489;51.404;5.474;2023-04-03T06:32:32;6.18;;;2.47;;
45784;SDS011;31489;51.404;5.474;2023-04-03T06:34:57;5.22;;;1.85;;
45784;SDS011;31489;51.404;5.474;2023-04-03T06:37:23;4.55;;;1.90;;
45784;SDS011;31489;51.404;5.474;2023-04-03T06:39:54;5.90;;;2.00;;
45784;SDS011;31489;51.404;5.474;2023-04-03T06:42:20;4.95;;;2.20;;
45784;SDS011;31489;51.404;5.474;2023-04-03T06:44:46;3.45;;;1.70;;
45784;SDS011;31489;51.404;5.474;2023-04-03T06:47:15;3.40;;;1.88;;
45784;SDS011;31489;51.404;5.474;2023-04-03T06:49:41;6.22;;;2.17;;
45784;SDS011;31489;51.404;5.474;2023-04-03T06:52:08;4.25;;;1.70;;
45784;SDS011;31489;51.404;5.474;2023-04-03T06:54:34;6.20;;;1.95;;
45784;SDS011;31489;51.404;5.474;2023-04-03T06:57:01;3.38;;;1.63;;
45784;SDS011;31489;51.404;5.474;2023-04-03T06:59:27;5.10;;;2.20;;
45784;SDS011;31489;51.404;5.474;2023-04-03T07:01:53;5.43;;;2.03;;
45784;SDS011;31489;51.404;5.474;2023-04-03T07:04:19;4.88;;;1.90;;
45784;SDS011;31489;51.404;5.474;2023-04-03T07:06:47;4.55;;;2.00;;
45784;SDS011;31489;51.404;5.474;2023-04-03T07:09:16;4.40;;;1.88;;
45784;SDS011;31489;51.404;5.474;2023-04-03T07:11:41;4.70;;;2.30;;
45784;SDS011;31489;51.404;5.474;2023-04-03T07:14:07;6.78;;;2.15;;
45784;SDS011;31489;51.404;5.474;2023-04-03T07:16:33;4.78;;;1.90;;
45784;SDS011;31489;51.404;5.474;2023-04-03T07:19:00;5.03;;;2.00;;
45784;SDS011;31489;51.404;5.474;2023-04-03T07:21:26;5.13;;;2.22;;
45784;SDS011;31489;51.404;5.474;2023-04-03T07:23:52;4.18;;;1.77;;
45784;SDS011;31489;51.404;5.474;2023-04-03T07:26:18;4.68;;;2.03;;
45784;SDS011;31489;51.404;5.474;2023-04-03T07:28:45;4.75;;;2.10;;
45784;SDS011;31489;51.404;5.474;2023-04-03T07:31:13;4.20;;;1.85;;
45784;SDS011;31489;51.404;5.474;2023-04-03T07:33:42;8.38;;;1.88;;
45784;SDS011;31489;51.404;5.474;2023-04-03T07:36:08;5.57;;;2.40;;
45784;SDS011;31489;51.404;5.474;2023-04-03T07:38:36;6.97;;;2.25;;
45784;SDS011;31489;51.404;5.474;2023-04-03T07:41:02;4.28;;;2.00;;
45784;SDS011;31489;51.404;5.474;2023-04-03T07:43:28;3.67;;;2.00;;
45784;SDS011;31489;51.404;5.474;2023-04-03T07:45:54;6.45;;;1.98;;
45784;SDS011;31489;51.404;5.474;2023-04-03T07:48:23;5.70;;;2.00;;
45784;SDS011;31489;51.404;5.474;2023-04-03T07:50:50;4.75;;;2.20;;
45784;SDS011;31489;51.404;5.474;2023-04-03T07:53:16;7.60;;;1.80;;
45784;SDS011;31489;51.404;5.474;2023-04-03T07:55:42;4.70;;;1.98;;
45784;SDS011;31489;51.404;5.474;2023-04-03T07:58:12;5.38;;;1.90;;
45784;SDS011;31489;51.404;5.474;2023-04-03T08:00:39;3.00;;;1.65;;
45784;SDS011;31489;51.404;5.474;2023-04-03T08:03:06;5.57;;;1.77;;
45784;SDS011;31489;51.404;5.474;2023-04-03T08:05:37;3.72;;;1.77;;
45784;SDS011;31489;51.404;5.474;2023-04-03T08:08:05;3.97;;;1.95;;
45784;SDS011;31489;51.404;5.474;2023-04-03T08:10:31;9.35;;;2.40;;
45784;SDS011;31489;51.404;5.474;2023-04-03T08:12:58;5.75;;;1.80;;
45784;SDS011;31489;51.404;5.474;2023-04-03T08:15:23;4.95;;;1.73;;
45784;SDS011;31489;51.404;5.474;2023-04-03T08:17:49;4.50;;;1.80;;
45784;SDS011;31489;51.404;5.474;2023-04-03T08:20:15;6.63;;;1.50;;
45784;SDS011;31489;51.404;5.474;2023-04-03T08:22:41;6.60;;;1.92;;
45784;SDS011;31489;51.404;5.474;2023-04-03T08:25:07;4.78;;;1.65;;
45784;SDS011;31489;51.404;5.474;2023-04-03T08:27:33;3.50;;;1.58;;
45784;SDS011;31489;51.404;5.474;2023-04-03T08:29:58;4.03;;;1.65;;
45784;SDS011;31489;51.404;5.474;2023-04-03T08:32:24;4.30;;;1.58;;
45784;SDS011;31489;51.404;5.474;2023-04-03T08:34:50;3.67;;;1.90;;
45784;SDS011;31489;51.404;5.474;2023-04-03T08:37:16;6.85;;;2.10;;
45784;SDS011;31489;51.404;5.474;2023-04-03T08:39:42;3.53;;;1.70;;
45784;SDS011;31489;51.404;5.474;2023-04-03T08:42:44;5.10;;;1.70;;
45784;SDS011;31489;51.404;5.474;2023-04-03T08:48:00;5.30;;;1.50;;
45784;SDS011;31489;51.404;5.474;2023-04-03T08:50:48;3.33;;;1.90;;
45784;SDS011;31489;51.404;5.474;2023-04-03T08:53:19;3.70;;;1.50;;
45784;SDS011;31489;51.404;5.474;2023-04-03T08:55:49;4.30;;;1.48;;
45784;SDS011;31489;51.404;5.474;2023-04-03T08:58:20;3.67;;;1.77;;
45784;SDS011;31489;51.404;5.474;2023-04-03T09:03:38;5.60;;;1.58;;
45784;SDS011;31489;51.404;5.474;2023-04-03T09:06:06;3.90;;;1.58;;
45784;SDS011;31489;51.404;5.474;2023-04-03T09:08:37;3.35;;;1.40;;
45784;SDS011;31489;51.404;5.474;2023-04-03T09:11:26;5.13;;;1.58;;
45784;SDS011;31489;51.404;5.474;2023-04-03T09:16:46;3.35;;;1.23;;
45784;SDS011;31489;51.404;5.474;2023-04-03T09:21:48;1.60;;;1.15;;
45784;SDS011;31489;51.404;5.474;2023-04-03T09:24:14;4.05;;;1.20;;
45784;SDS011;31489;51.404;5.474;2023-04-03T09:26:56;4.63;;;1.05;;
45784;SDS011;31489;51.404;5.474;2023-04-03T09:29:25;2.53;;;0.80;;
45784;SDS011;31489;51.404;5.474;2023-04-03T09:32:01;1.63;;;0.80;;
45784;SDS011;31489;51.404;5.474;2023-04-03T09:34:37;2.47;;;0.90;;
45784;SDS011;31489;51.404;5.474;2023-04-03T09:37:06;3.83;;;0.80;;
45784;SDS011;31489;51.404;5.474;2023-04-03T09:39:54;1.00;;;0.77;;
45784;SDS011;31489;51.404;5.474;2023-04-03T09:42:21;3.15;;;0.85;;
45784;SDS011;31489;51.404;5.474;2023-04-03T09:44:56;1.63;;;1.10;;
45784;SDS011;31489;51.404;5.474;2023-04-03T09:47:28;1.17;;;0.90;;
45784;SDS011;31489;51.404;5.474;2023-04-03T09:52:39;1.90;;;0.93;;
45784;SDS011;31489;51.404;5.474;2023-04-03T09:55:19;2.58;;;0.90;;
45784;SDS011;31489;51.404;5.474;2023-04-03T09:57:52;4.73;;;1.47;;
45784;SDS011;31489;51.404;5.474;2023-04-03T10:03:00;3.28;;;1.00;;
45784;SDS011;31489;51.404;5.474;2023-04-03T10:10:45;1.60;;;0.93;;
45784;SDS011;31489;51.404;5.474;2023-04-03T10:15:45;3.25;;;1.05;;
45784;SDS011;31489;51.404;5.474;2023-04-03T10:24:27;1.85;;;0.98;;
45784;SDS011;31489;51.404;5.474;2023-04-03T10:30:13;1.52;;;0.80;;
45784;SDS011;31489;51.404;5.474;2023-04-03T10:38:37;1.60;;;0.85;;
45784;SDS011;31489;51.404;5.474;2023-04-03T10:41:16;2.17;;;0.85;;
45784;SDS011;31489;51.404;5.474;2023-04-03T10:52:17;3.33;;;1.10;;
45784;SDS011;31489;51.404;5.474;2023-04-03T10:57:39;2.08;;;1.15;;
45784;SDS011;31489;51.404;5.474;2023-04-03T11:00:16;2.30;;;1.05;;
45784;SDS011;31489;51.404;5.474;2023-04-03T11:02:59;3.13;;;1.20;;
45784;SDS011;31489;51.404;5.474;2023-04-03T11:05:34;1.00;;;0.90;;
45784;SDS011;31489;51.404;5.474;2023-04-03T11:11:19;0.75;;;0.70;;
45784;SDS011;31489;51.404;5.474;2023-04-03T11:13:58;1.40;;;0.82;;
45784;SDS011;31489;51.404;5.474;2023-04-03T11:16:30;0.90;;;0.68;;
45784;SDS011;31489;51.404;5.474;2023-04-03T11:19:07;1.45;;;0.93;;
45784;SDS011;31489;51.404;5.474;2023-04-03T11:24:42;1.33;;;0.98;;
45784;SDS011;31489;51.404;5.474;2023-04-03T11:27:21;2.17;;;1.00;;
45784;SDS011;31489;51.404;5.474;2023-04-03T11:29:48;3.28;;;1.10;;
45784;SDS011;31489;51.404;5.474;2023-04-03T11:35:05;1.85;;;1.00;;
45784;SDS011;31489;51.404;5.474;2023-04-03T11:37:38;2.38;;;1.25;;
45784;SDS011;31489;51.404;5.474;2023-04-03T11:42:48;1.17;;;0.88;;
45784;SDS011;31489;51.404;5.474;2023-04-03T11:45:22;1.30;;;0.80;;
45784;SDS011;31489;51.404;5.474;2023-04-03T12:05:49;1.67;;;1.10;;
45784;SDS011;31489;51.404;5.474;2023-04-03T12:08:27;1.48;;;1.00;;
45784;SDS011;31489;51.404;5.474;2023-04-03T12:13:38;2.33;;;1.20;;
45784;SDS011;31489;51.404;5.474;2023-04-03T12:24:31;3.45;;;1.38;;
45784;SDS011;31489;51.404;5.474;2023-04-03T12:32:48;3.65;;;1.13;;
45784;SDS011;31489;51.404;5.474;2023-04-03T12:38:23;1.08;;;0.90;;
45784;SDS011;31489;51.404;5.474;2023-04-03T12:46:42;2.50;;;1.10;;
45784;SDS011;31489;51.404;5.474;2023-04-03T12:51:45;1.00;;;0.80;;
45784;SDS011;31489;51.404;5.474;2023-04-03T12:54:21;3.28;;;1.02;;
45784;SDS011;31489;51.404;5.474;2023-04-03T12:57:12;2.83;;;1.00;;
45784;SDS011;31489;51.404;5.474;2023-04-03T13:00:00;1.85;;;0.80;;
45784;SDS011;31489;51.404;5.474;2023-04-03T13:02:44;2.38;;;1.23;;
45784;SDS011;31489;51.404;5.474;2023-04-03T13:05:13;1.85;;;1.00;;
45784;SDS011;31489;51.404;5.474;2023-04-03T13:07:42;2.58;;;1.20;;
45784;SDS011;31489;51.404;5.474;2023-04-03T13:12:34;4.90;;;1.15;;
45784;SDS011;31489;51.404;5.474;2023-04-03T13:15:14;2.15;;;1.08;;
45784;SDS011;31489;51.404;5.474;2023-04-03T13:17:43;1.58;;;0.93;;
45784;SDS011;31489;51.404;5.474;2023-04-03T13:20:10;1.52;;;1.10;;
45784;SDS011;31489;51.404;5.474;2023-04-03T13:23:04;2.55;;;1.08;;
45784;SDS011;31489;51.404;5.474;2023-04-03T13:25:34;2.95;;;1.20;;
45784;SDS011;31489;51.404;5.474;2023-04-03T13:28:03;3.88;;;1.20;;
45784;SDS011;31489;51.404;5.474;2023-04-03T13:30:34;2.22;;;1.10;;
45784;SDS011;31489;51.404;5.474;2023-04-03T13:33:03;3.10;;;1.25;;
45784;SDS011;31489;51.404;5.474;2023-04-03T13:35:47;2.03;;;1.30;;
45784;SDS011;31489;51.404;5.474;2023-04-03T13:40:54;3.65;;;1.40;;
45784;SDS011;31489;51.404;5.474;2023-04-03T13:43:25;4.60;;;1.40;;
45784;SDS011;31489;51.404;5.474;2023-04-03T13:45:57;2.33;;;1.08;;
45784;SDS011;31489;51.404;5.474;2023-04-03T13:48:25;2.63;;;1.08;;
45784;SDS011;31489;51.404;5.474;2023-04-03T13:53:26;5.60;;;1.40;;
45784;SDS011;31489;51.404;5.474;2023-04-03T13:58:34;2.25;;;1.38;;
45784;SDS011;31489;51.404;5.474;2023-04-03T14:01:07;3.75;;;1.50;;
45784;SDS011;31489;51.404;5.474;2023-04-03T14:06:12;2.05;;;1.13;;
45784;SDS011;31489;51.404;5.474;2023-04-03T14:08:43;5.53;;;1.27;;
45784;SDS011;31489;51.404;5.474;2023-04-03T14:11:29;2.83;;;1.70;;
45784;SDS011;31489;51.404;5.474;2023-04-03T14:13:57;2.78;;;1.40;;
45784;SDS011;31489;51.404;5.474;2023-04-03T14:16:27;2.63;;;1.20;;
45784;SDS011;31489;51.404;5.474;2023-04-03T14:18:58;2.92;;;1.13;;
45784;SDS011;31489;51.404;5.474;2023-04-03T14:21:27;2.80;;;1.30;;
45784;SDS011;31489;51.404;5.474;2023-04-03T14:23:52;2.58;;;1.30;;
45784;SDS011;31489;51.404;5.474;2023-04-03T14:26:20;2.63;;;1.23;;
45784;SDS011;31489;51.404;5.474;2023-04-03T14:28:53;3.33;;;1.38;;
45784;SDS011;31489;51.404;5.474;2023-04-03T14:31:20;2.78;;;1.27;;
45784;SDS011;31489;51.404;5.474;2023-04-03T14:33:47;2.45;;;1.15;;
45784;SDS011;31489;51.404;5.474;2023-04-03T14:36:14;3.67;;;1.40;;
45784;SDS011;31489;51.404;5.474;2023-04-03T14:38:43;1.38;;;1.00;;
45784;SDS011;31489;51.404;5.474;2023-04-03T14:41:16;3.65;;;1.30;;
45784;SDS011;31489;51.404;5.474;2023-04-03T14:43:45;2.70;;;1.63;;
45784;SDS011;31489;51.404;5.474;2023-04-03T14:46:20;2.03;;;1.38;;
45784;SDS011;31489;51.404;5.474;2023-04-03T14:48:47;1.67;;;0.88;;
45784;SDS011;31489;51.404;5.474;2023-04-03T14:51:14;1.95;;;1.20;;
45784;SDS011;31489;51.404;5.474;2023-04-03T14:53:42;2.92;;;1.40;;
45784;SDS011;31489;51.404;5.474;2023-04-03T14:56:20;3.03;;;1.40;;
45784;SDS011;31489;51.404;5.474;2023-04-03T14:58:49;2.30;;;1.35;;
45784;SDS011;31489;51.404;5.474;2023-04-03T15:01:20;1.80;;;1.25;;
45784;SDS011;31489;51.404;5.474;2023-04-03T15:03:46;2.30;;;1.40;;
45784;SDS011;31489;51.404;5.474;2023-04-03T15:06:12;4.25;;;1.35;;
45784;SDS011;31489;51.404;5.474;2023-04-03T15:08:41;2.83;;;1.50;;
45784;SDS011;31489;51.404;5.474;2023-04-03T15:11:09;2.22;;;1.50;;
45784;SDS011;31489;51.404;5.474;2023-04-03T15:13:36;4.45;;;1.45;;
45784;SDS011;31489;51.404;5.474;2023-04-03T15:16:04;2.95;;;1.40;;
45784;SDS011;31489;51.404;5.474;2023-04-03T15:18:33;2.28;;;1.23;;
45784;SDS011;31489;51.404;5.474;2023-04-03T15:21:02;1.33;;;1.15;;
45784;SDS011;31489;51.404;5.474;2023-04-03T15:23:29;2.42;;;1.60;;
45784;SDS011;31489;51.404;5.474;2023-04-03T15:25:55;2.20;;;1.33;;
45784;SDS011;31489;51.404;5.474;2023-04-03T15:28:28;2.40;;;1.25;;
45784;SDS011;31489;51.404;5.474;2023-04-03T15:30:55;2.58;;;1.27;;
45784;SDS011;31489;51.404;5.474;2023-04-03T15:33:21;2.83;;;1.40;;
45784;SDS011;31489;51.404;5.474;2023-04-03T15:35:47;2.88;;;1.52;;
45784;SDS011;31489;51.404;5.474;2023-04-03T15:38:12;2.15;;;1.33;;
45784;SDS011;31489;51.404;5.474;2023-04-03T15:40:41;3.60;;;1.50;;
45784;SDS011;31489;51.404;5.474;2023-04-03T15:43:07;5.18;;;1.42;;
45784;SDS011;31489;51.404;5.474;2023-04-03T15:45:34;2.05;;;1.20;;
45784;SDS011;31489;51.404;5.474;2023-04-03T15:48:02;2.63;;;1.40;;
45784;SDS011;31489;51.404;5.474;2023-04-03T15:50:28;3.30;;;1.60;;
45784;SDS011;31489;51.404;5.474;2023-04-03T15:52:54;2.60;;;1.15;;
45784;SDS011;31489;51.404;5.474;2023-04-03T15:55:21;4.32;;;1.45;;
45784;SDS011;31489;51.404;5.474;2023-04-03T15:57:47;2.03;;;1.20;;
45784;SDS011;31489;51.404;5.474;2023-04-03T16:00:13;3.88;;;1.48;;
45784;SDS011;31489;51.404;5.474;2023-04-03T16:02:39;2.60;;;1.40;;
45784;SDS011;31489;51.404;5.474;2023-04-03T16:05:06;3.90;;;1.30;;
45784;SDS011;31489;51.404;5.474;2023-04-03T16:07:33;2.72;;;1.55;;
45784;SDS011;31489;51.404;5.474;2023-04-03T16:09:59;5.00;;;1.70;;
45784;SDS011;31489;51.404;5.474;2023-04-03T16:12:25;7.72;;;4.20;;
45784;SDS011;31489;51.404;5.474;2023-04-03T16:14:51;5.30;;;2.63;;
45784;SDS011;31489;51.404;5.474;2023-04-03T16:17:16;6.68;;;3.72;;
45784;SDS011;31489;51.404;5.474;2023-04-03T16:19:42;4.63;;;2.45;;
45784;SDS011;31489;51.404;5.474;2023-04-03T16:22:08;2.78;;;1.85;;
45784;SDS011;31489;51.404;5.474;2023-04-03T16:24:34;3.63;;;1.58;;
45784;SDS011;31489;51.404;5.474;2023-04-03T16:27:00;3.00;;;1.42;;
45784;SDS011;31489;51.404;5.474;2023-04-03T16:29:26;4.38;;;1.50;;
45784;SDS011;31489;51.404;5.474;2023-04-03T16:31:52;3.60;;;1.23;;
45784;SDS011;31489;51.404;5.474;2023-04-03T16:34:18;5.07;;;1.33;;
45784;SDS011;31489;51.404;5.474;2023-04-03T16:36:44;1.55;;;1.13;;
45784;SDS011;31489;51.404;5.474;2023-04-03T16:39:10;3.60;;;1.30;;
45784;SDS011;31489;51.404;5.474;2023-04-03T16:41:36;3.25;;;1.42;;
45784;SDS011;31489;51.404;5.474;2023-04-03T16:44:01;3.03;;;1.40;;
45784;SDS011;31489;51.404;5.474;2023-04-03T16:46:27;2.72;;;1.38;;
45784;SDS011;31489;51.404;5.474;2023-04-03T16:48:53;3.20;;;1.35;;
45784;SDS011;31489;51.404;5.474;2023-04-03T16:51:18;5.97;;;1.90;;
45784;SDS011;31489;51.404;5.474;2023-04-03T16:53:44;1.80;;;1.13;;
45784;SDS011;31489;51.404;5.474;2023-04-03T16:56:10;2.70;;;1.58;;
45784;SDS011;31489;51.404;5.474;2023-04-03T16:58:35;3.53;;;1.55;;
45784;SDS011;31489;51.404;5.474;2023-04-03T17:01:14;1.70;;;1.13;;
45784;SDS011;31489;51.404;5.474;2023-04-03T17:03:41;4.88;;;1.33;;